Time;durP1;ratioP1;P1;durP2;ratioP2;P2;SDS_P1;SDS_P2;PMS_P1;PMS_P2;Temp;Humidity;BMP_temperature;BMP_pressure;BME280_temperature;BME280_humidity;BME280_pressure;Samples;Min_cycle;Max_cycle;Signal;HPM_P1;HPM_P2
2023/02/04 00:00:44;;;;;;;6.95;3.70;;;;;;;7.34;100.00;102673.44;5020983;28;20029;-72
2023/02/04 00:03:10;;;;;;;8.73;3.60;;;;;;;7.36;100.00;102676.00;5004849;28;20032;-71
2023/02/04 00:05:35;;;;;;;7.18;3.60;;;;;;;7.37;100.00;102669.38;4995889;28;20026;-71
2023/02/04 00:08:01;;;;;;;6.22;3.30;;;;;;;7.35;100.00;102674.28;5020746;28;20040;-71
2023/02/04 00:10:26;;;;;;;5.88;3.30;;;;;;;7.34;100.00;102662.38;5001182;28;20060;-71
2023/02/04 00:12:52;;;;;;;6.68;3.20;;;;;;;7.37;100.00;102667.47;4998994;28;20581;-72
2023/02/04 00:15:17;;;;;;;5.85;3.30;;;;;;;7.35;100.00;102677.91;5015360;28;20036;-71
2023/02/04 00:17:43;;;;;;;8.00;3.90;;;;;;;7.35;100.00;102674.28;5006752;28;20132;-72
2023/02/04 00:20:09;;;;;;;7.35;3.08;;;;;;;7.34;100.00;102667.06;5031767;28;20029;-72
2023/02/04 00:22:34;;;;;;;6.38;3.22;;;;;;;7.33;100.00;102668.16;5020393;28;20128;-71
2023/02/04 00:25:00;;;;;;;6.03;2.97;;;;;;;7.31;100.00;102668.34;5018375;28;20025;-72
2023/02/04 00:27:25;;;;;;;7.00;2.95;;;;;;;7.28;100.00;102660.50;5003703;28;20036;-71
2023/02/04 00:29:50;;;;;;;5.13;2.88;;;;;;;7.30;100.00;102663.03;5033764;28;20033;-71
2023/02/04 00:32:16;;;;;;;6.60;3.03;;;;;;;7.29;100.00;102664.09;5014472;28;20466;-72
2023/02/04 00:34:41;;;;;;;5.88;3.05;;;;;;;7.29;100.00;102655.81;5027711;28;20048;-72
2023/02/04 00:37:07;;;;;;;4.75;2.58;;;;;;;7.31;100.00;102662.81;5020305;28;20025;-72
2023/02/04 00:39:32;;;;;;;4.72;2.60;;;;;;;7.32;100.00;102660.91;5000423;28;20049;-72
2023/02/04 00:41:58;;;;;;;4.65;2.88;;;;;;;7.31;100.00;102664.75;4987906;28;20505;-71
2023/02/04 00:44:23;;;;;;;7.00;2.92;;;;;;;7.27;100.00;102661.59;5037682;28;20155;-71
2023/02/04 00:46:49;;;;;;;5.80;2.90;;;;;;;7.27;100.00;102664.34;5020873;28;20028;-71
2023/02/04 00:49:14;;;;;;;4.82;2.58;;;;;;;7.28;100.00;102657.75;5004590;28;20363;-72
2023/02/04 00:51:43;;;;;;;5.75;2.60;;;;;;;7.27;100.00;102658.81;5015902;28;20025;-72
2023/02/04 00:54:08;;;;;;;5.85;2.92;;;;;;;7.28;100.00;102663.28;5043571;28;20022;-72
2023/02/04 00:56:34;;;;;;;4.32;2.30;;;;;;;7.28;100.00;102660.50;5053705;28;20039;-72
2023/02/04 00:58:59;;;;;;;5.35;2.90;;;;;;;7.27;100.00;102655.19;5040715;28;20040;-72
2023/02/04 01:01:25;;;;;;;3.03;2.42;;;;;;;7.26;100.00;102659.88;5040350;28;20033;-71
2023/02/04 01:03:50;;;;;;;4.10;2.40;;;;;;;7.24;100.00;102661.16;5038353;28;20444;-72
2023/02/04 01:06:15;;;;;;;5.97;2.70;;;;;;;7.24;100.00;102659.22;5016335;28;20033;-71
2023/02/04 01:08:41;;;;;;;6.97;2.88;;;;;;;7.24;100.00;102653.69;5004227;28;20648;-72
2023/02/04 01:11:06;;;;;;;6.80;2.42;;;;;;;7.23;100.00;102652.00;5004172;28;20034;-72
2023/02/04 01:13:32;;;;;;;5.70;2.83;;;;;;;7.22;100.00;102650.34;5020346;28;20554;-72
2023/02/04 01:15:57;;;;;;;5.28;3.05;;;;;;;7.22;100.00;102653.09;5014797;28;20036;-72
2023/02/04 01:18:23;;;;;;;5.63;2.88;;;;;;;7.21;100.00;102656.06;4994272;28;20025;-72
2023/02/04 01:20:48;;;;;;;6.72;2.55;;;;;;;7.19;100.00;102659.06;5020641;28;20116;-72
2023/02/04 01:23:14;;;;;;;4.50;2.88;;;;;;;7.20;100.00;102663.50;5039497;28;20029;-72
2023/02/04 01:25:39;;;;;;;4.65;2.47;;;;;;;7.16;100.00;102659.50;5008426;28;20033;-72
2023/02/04 01:28:05;;;;;;;5.68;2.80;;;;;;;7.14;100.00;102665.25;5035590;28;20676;-72
2023/02/04 01:30:30;;;;;;;7.60;2.60;;;;;;;7.17;100.00;102666.72;5015857;28;20128;-72
2023/02/04 01:32:55;;;;;;;4.90;2.60;;;;;;;7.17;100.00;102666.72;5012468;28;20424;-71
2023/02/04 01:35:21;;;;;;;5.57;3.35;;;;;;;7.16;100.00;102676.09;5040387;28;20040;-71
2023/02/04 01:37:47;;;;;;;6.97;2.90;;;;;;;7.11;100.00;102684.19;5040103;28;20090;-72
2023/02/04 01:40:12;;;;;;;9.15;3.80;;;;;;;7.06;100.00;102682.06;5024065;28;20061;-71
2023/02/04 01:42:38;;;;;;;7.43;3.95;;;;;;;7.03;100.00;102696.31;5019080;28;20033;-72
2023/02/04 01:45:05;;;;;;;8.45;3.85;;;;;;;6.99;100.00;102697.78;5034872;28;20059;-71
2023/02/04 01:47:31;;;;;;;8.20;4.00;;;;;;;6.97;100.00;102699.09;5019794;28;20057;-72
2023/02/04 01:49:56;;;;;;;8.90;4.00;;;;;;;6.94;100.00;102698.47;5034206;28;20039;-72
2023/02/04 01:52:22;;;;;;;6.88;4.03;;;;;;;6.94;100.00;102695.69;5036052;28;20583;-72
2023/02/04 01:54:47;;;;;;;8.20;3.60;;;;;;;6.95;100.00;102693.78;5024529;28;20416;-72
2023/02/04 01:57:14;;;;;;;4.88;2.88;;;;;;;6.97;100.00;102705.47;5043223;28;20432;-72
2023/02/04 01:59:42;;;;;;;4.70;3.17;;;;;;;6.99;100.00;102692.25;5039598;28;20029;-72
2023/02/04 02:02:39;;;;;;;6.15;3.53;;;;;;;7.02;100.00;102702.03;5023666;28;20496;-72
2023/02/04 02:05:09;;;;;;;5.82;3.20;;;;;;;7.01;100.00;102698.44;5032571;28;20538;-71
2023/02/04 02:07:34;;;;;;;5.80;3.83;;;;;;;7.04;100.00;102694.38;5012306;28;20045;-72
2023/02/04 02:10:00;;;;;;;6.18;3.40;;;;;;;7.04;100.00;102691.63;5021836;28;20021;-71
2023/02/04 02:12:26;;;;;;;5.38;3.60;;;;;;;7.03;100.00;102687.19;4994857;28;20040;-72
2023/02/04 02:14:51;;;;;;;5.55;3.08;;;;;;;7.00;100.00;102693.13;5021976;28;20566;-72
2023/02/04 02:17:17;;;;;;;5.95;3.38;;;;;;;7.02;100.00;102682.69;5036238;28;20029;-72
2023/02/04 02:19:42;;;;;;;6.15;3.22;;;;;;;7.01;100.00;102681.00;5009634;28;20041;-72
2023/02/04 02:22:07;;;;;;;5.95;3.05;;;;;;;7.03;100.00;102681.66;5010374;28;20505;-72
2023/02/04 02:24:33;;;;;;;4.95;2.65;;;;;;;7.01;100.00;102672.72;5042615;28;20064;-71
2023/02/04 02:27:03;;;;;;;3.90;2.60;;;;;;;7.02;100.00;102671.66;4998448;28;20116;-71
2023/02/04 02:29:29;;;;;;;5.80;2.78;;;;;;;7.01;100.00;102668.03;5003547;28;20421;-71
2023/02/04 02:31:56;;;;;;;5.18;2.78;;;;;;;7.01;100.00;102667.19;5019134;28;20033;-71
2023/02/04 02:34:22;;;;;;;4.28;2.60;;;;;;;6.97;100.00;102674.25;5039065;28;20025;-72
2023/02/04 02:36:47;;;;;;;6.55;2.88;;;;;;;6.98;100.00;102667.63;5025524;28;20033;-71
2023/02/04 02:39:13;;;;;;;3.45;2.65;;;;;;;7.01;100.00;102672.72;5010369;28;20053;-71
2023/02/04 02:41:38;;;;;;;5.15;3.05;;;;;;;6.99;100.00;102669.31;5002556;28;20049;-72
2023/02/04 02:44:04;;;;;;;5.85;3.00;;;;;;;6.95;100.00;102671.69;5018992;28;20111;-71
2023/02/04 02:46:29;;;;;;;6.38;3.45;;;;;;;6.93;100.00;102677.41;5020730;28;20029;-71
2023/02/04 02:48:55;;;;;;;3.42;2.70;;;;;;;6.98;100.00;102670.41;5002787;28;20028;-71
2023/02/04 02:51:20;;;;;;;4.35;2.90;;;;;;;6.99;100.00;102669.31;5002714;28;20037;-72
2023/02/04 02:53:46;;;;;;;5.57;2.85;;;;;;;6.97;100.00;102671.47;5014997;28;20030;-71
2023/02/04 02:56:11;;;;;;;5.90;2.78;;;;;;;6.97;100.00;102677.00;5027319;28;20402;-71
2023/02/04 02:58:37;;;;;;;4.32;2.40;;;;;;;6.96;100.00;102675.28;5018797;28;20025;-72
2023/02/04 03:01:07;;;;;;;4.20;2.40;;;;;;;6.97;100.00;102674.25;5002332;28;20025;-71
2023/02/04 03:03:34;;;;;;;6.22;2.30;;;;;;;6.96;100.00;102672.53;5024876;28;20029;-71
2023/02/04 03:06:09;;;;;;;5.82;2.45;;;;;;;6.95;100.00;102671.69;5014679;28;20028;-71
2023/02/04 03:08:34;;;;;;;4.90;2.60;;;;;;;6.96;100.00;102669.75;5021994;28;20033;-71
2023/02/04 03:11:00;;;;;;;4.00;2.80;;;;;;;6.95;100.00;102666.16;5002158;28;20040;-71
2023/02/04 03:13:25;;;;;;;4.70;2.63;;;;;;;6.96;100.00;102667.84;5017138;28;20057;-72
2023/02/04 03:15:51;;;;;;;4.40;2.60;;;;;;;6.92;100.00;102674.88;5032280;28;20056;-71
2023/02/04 03:18:17;;;;;;;5.70;2.58;;;;;;;6.91;100.00;102674.03;5020161;28;20572;-72
2023/02/04 03:20:43;;;;;;;2.70;2.17;;;;;;;6.94;100.00;102676.38;5018514;28;20022;-72
2023/02/04 03:23:08;;;;;;;4.88;2.47;;;;;;;6.96;100.00;102675.28;5018058;28;20029;-71
2023/02/04 03:25:33;;;;;;;4.13;2.67;;;;;;;6.94;100.00;102679.13;5049471;28;20048;-71
2023/02/04 03:27:59;;;;;;;7.07;2.92;;;;;;;6.94;100.00;102675.53;4991149;28;20017;-72
2023/02/04 03:30:25;;;;;;;5.43;2.90;;;;;;;6.92;100.00;102674.88;5032654;28;20057;-72
2023/02/04 03:32:50;;;;;;;7.05;3.28;;;;;;;6.90;100.00;102675.09;5021749;28;20075;-71
2023/02/04 03:35:16;;;;;;;6.05;3.30;;;;;;;6.89;100.00;102673.41;5001619;28;20036;-72
2023/02/04 03:37:42;;;;;;;8.18;3.30;;;;;;;6.93;100.00;102682.94;5018195;28;20029;-71
2023/02/04 03:40:08;;;;;;;5.95;2.95;;;;;;;6.93;100.00;102669.13;5002887;28;20045;-72
2023/02/04 03:42:33;;;;;;;5.30;2.70;;;;;;;6.91;100.00;102665.75;5001841;28;20033;-71
2023/02/04 03:44:59;;;;;;;7.10;2.85;;;;;;;6.93;100.00;102666.34;5019748;28;20034;-71
2023/02/04 03:47:26;;;;;;;6.25;3.47;;;;;;;6.90;100.00;102664.03;4998562;28;20076;-72
2023/02/04 03:49:51;;;;;;;5.25;3.00;;;;;;;6.87;100.00;102666.38;5047811;28;20028;-72
2023/02/04 03:52:16;;;;;;;7.78;2.80;;;;;;;6.87;100.00;102677.44;5047806;28;20021;-71
2023/02/04 03:54:42;;;;;;;5.70;3.30;;;;;;;6.86;100.00;102670.22;5041815;28;20033;-72
2023/02/04 03:57:07;;;;;;;7.70;4.10;;;;;;;6.83;100.00;102670.66;5017037;28;20493;-71
2023/02/04 03:59:33;;;;;;;8.48;4.85;;;;;;;6.78;100.00;102684.28;5014030;28;20037;-71
2023/02/04 04:01:58;;;;;;;11.90;4.72;;;;;;;6.73;100.00;102682.16;5004585;28;20032;-72
2023/02/04 04:04:24;;;;;;;10.02;4.70;;;;;;;6.72;100.00;102680.47;5036702;28;20460;-71
2023/02/04 04:06:49;;;;;;;8.30;3.70;;;;;;;6.71;100.00;102684.25;5017615;28;20452;-72
2023/02/04 04:09:15;;;;;;;6.82;4.03;;;;;;;6.73;100.00;102690.44;5026658;28;20505;-71
2023/02/04 04:11:40;;;;;;;6.38;3.40;;;;;;;6.72;100.00;102691.50;5016626;28;20075;-72
2023/02/04 04:14:06;;;;;;;5.68;3.38;;;;;;;6.73;100.00;102693.19;5010320;28;20029;-71
2023/02/04 04:16:31;;;;;;;6.72;3.60;;;;;;;6.72;100.00;102695.09;5032792;28;20030;-71
2023/02/04 04:18:57;;;;;;;4.95;3.33;;;;;;;6.72;100.00;102692.34;5036607;28;20501;-71
2023/02/04 04:21:22;;;;;;;5.30;3.22;;;;;;;6.74;100.00;102697.63;5013416;28;20033;-72
2023/02/04 04:23:48;;;;;;;10.13;4.38;;;;;;;6.74;100.00;102694.88;4999109;28;20038;-72
2023/02/04 04:26:13;;;;;;;6.45;3.95;;;;;;;6.74;100.00;102692.13;5016755;28;20041;-71
2023/02/04 04:28:39;;;;;;;6.57;3.67;;;;;;;6.74;100.00;102689.34;5011684;28;20402;-71
2023/02/04 04:31:04;;;;;;;7.78;4.10;;;;;;;6.74;100.00;102694.03;4984521;28;20049;-71
2023/02/04 04:33:30;;;;;;;7.10;4.07;;;;;;;6.72;100.00;102702.56;5017156;28;20040;-71
2023/02/04 04:35:55;;;;;;;7.28;4.50;;;;;;;6.71;100.00;102698.06;5019866;28;20036;-75
2023/02/04 04:38:20;;;;;;;8.35;4.20;;;;;;;6.70;100.00;102700.00;5020299;28;20389;-71
2023/02/04 04:40:46;;;;;;;9.27;4.72;;;;;;;6.67;100.00;102699.56;5012358;28;20037;-72
2023/02/04 04:43:11;;;;;;;10.95;4.30;;;;;;;6.66;100.00;102698.72;5002593;28;20033;-71
2023/02/04 04:45:37;;;;;;;7.07;3.50;;;;;;;6.64;100.00;102695.31;5025189;28;20029;-71
2023/02/04 04:48:03;;;;;;;8.93;4.13;;;;;;;6.66;100.00;102698.72;4995840;28;20470;-72
2023/02/04 04:50:28;;;;;;;6.57;4.00;;;;;;;6.71;100.00;102707.22;5002298;28;20036;-72
2023/02/04 04:52:53;;;;;;;5.82;3.72;;;;;;;6.71;100.00;102703.59;4992095;28;20021;-72
2023/02/04 04:55:19;;;;;;;7.60;4.20;;;;;;;6.70;100.00;102704.66;5020310;28;20478;-71
2023/02/04 04:57:44;;;;;;;9.07;4.05;;;;;;;6.70;100.00;102712.94;5053246;28;20025;-72
2023/02/04 05:00:13;;;;;;;6.63;4.05;;;;;;;6.66;100.00;102712.53;5003297;28;20032;-72
2023/02/04 05:02:39;;;;;;;5.03;3.47;;;;;;;6.65;100.00;102709.97;5033466;28;20496;-72
2023/02/04 05:05:05;;;;;;;5.72;3.65;;;;;;;6.64;100.00;102708.28;5025960;28;20084;-71
2023/02/04 05:07:30;;;;;;;9.50;4.72;;;;;;;6.62;100.00;102702.97;5017379;28;20030;-72
2023/02/04 05:09:56;;;;;;;6.88;4.53;;;;;;;6.63;100.00;102710.22;4987334;28;20032;-72
2023/02/04 05:12:21;;;;;;;6.70;3.95;;;;;;;6.62;100.00;102702.97;5018572;28;20033;-71
2023/02/04 05:14:46;;;;;;;9.82;4.28;;;;;;;6.65;100.00;102704.47;5038548;28;20052;-72
2023/02/04 05:17:12;;;;;;;7.10;4.63;;;;;;;6.63;100.00;102704.69;5053432;28;20087;-72
2023/02/04 05:19:37;;;;;;;8.77;4.50;;;;;;;6.65;100.00;102701.69;5056776;28;20453;-71
2023/02/04 05:22:03;;;;;;;10.38;5.25;;;;;;;6.65;100.00;102708.06;5028391;28;20021;-71
2023/02/04 05:24:28;;;;;;;6.00;4.13;;;;;;;6.64;100.00;102717.41;5019706;28;20045;-72
2023/02/04 05:26:54;;;;;;;6.13;4.13;;;;;;;6.62;100.00;102710.41;4994672;28;20037;-72
2023/02/04 05:29:19;;;;;;;5.95;3.83;;;;;;;6.61;100.00;102711.47;5018845;28;20109;-72
2023/02/04 05:31:45;;;;;;;14.35;4.68;;;;;;;6.61;100.00;102712.34;5004075;28;20079;-72
2023/02/04 05:34:10;;;;;;;10.73;4.55;;;;;;;6.60;100.00;102715.28;5038700;28;20059;-71
2023/02/04 05:36:35;;;;;;;10.38;4.30;;;;;;;6.60;100.00;102715.28;5020391;28;20025;-72
2023/02/04 05:39:01;;;;;;;9.13;4.55;;;;;;;6.62;100.00;102727.81;5016356;28;20057;-72
2023/02/04 05:41:26;;;;;;;5.55;3.72;;;;;;;6.59;100.00;102719.13;5003936;28;20033;-72
2023/02/04 05:43:52;;;;;;;6.60;3.78;;;;;;;6.63;100.00;102723.16;5038481;28;20032;-72
2023/02/04 05:46:17;;;;;;;8.20;3.92;;;;;;;6.61;100.00;102719.78;5035081;28;20036;-72
2023/02/04 05:48:43;;;;;;;8.18;3.65;;;;;;;6.60;100.00;102716.16;5035653;28;20462;-72
2023/02/04 05:51:08;;;;;;;4.75;2.80;;;;;;;6.62;100.00;102721.44;4987597;28;20025;-72
2023/02/04 05:53:34;;;;;;;4.63;2.85;;;;;;;6.60;100.00;102718.06;5012773;28;20370;-72
2023/02/04 05:55:59;;;;;;;5.47;2.45;;;;;;;6.60;100.00;102720.81;5004137;28;20050;-72
2023/02/04 05:58:31;;;;;;;4.63;2.58;;;;;;;6.60;100.00;102720.81;5003494;28;20021;-72
2023/02/04 06:00:57;;;;;;;6.72;2.65;;;;;;;6.60;100.00;102724.44;5020517;28;20053;-71
2023/02/04 06:03:23;;;;;;;4.22;2.13;;;;;;;6.59;100.00;102724.66;5058084;28;20039;-72
2023/02/04 06:05:48;;;;;;;4.03;2.17;;;;;;;6.57;100.00;102719.31;5041028;28;20043;-72
2023/02/04 06:08:14;;;;;;;2.92;1.92;;;;;;;6.57;100.00;102726.75;5003208;28;20025;-72
2023/02/04 06:10:40;;;;;;;3.17;1.65;;;;;;;6.59;100.00;102724.66;5020054;28;20095;-72
2023/02/04 06:13:05;;;;;;;4.05;1.92;;;;;;;6.61;100.00;102726.13;5022813;28;20048;-72
2023/02/04 06:15:31;;;;;;;2.83;1.40;;;;;;;6.62;100.00;102722.31;5019474;28;20087;-72
2023/02/04 06:17:57;;;;;;;2.90;1.40;;;;;;;6.65;100.00;102729.31;5013631;28;20017;-72
2023/02/04 06:20:22;;;;;;;2.10;1.30;;;;;;;6.65;100.00;102729.31;5020277;28;20036;-72
2023/02/04 06:22:50;;;;;;;3.50;1.65;;;;;;;6.65;100.00;102732.06;5037180;28;20029;-72
2023/02/04 06:25:16;;;;;;;3.60;1.40;;;;;;;6.65;100.00;102727.38;5011033;28;20101;-72
2023/02/04 06:27:42;;;;;;;5.25;1.52;;;;;;;6.65;100.00;102732.06;5002617;28;20111;-72
2023/02/04 06:30:09;;;;;;;3.30;1.38;;;;;;;6.64;100.00;102727.63;5014655;28;20047;-72
2023/02/04 06:32:34;;;;;;;3.65;1.48;;;;;;;6.67;100.00;102727.19;5006603;28;20037;-72
2023/02/04 06:35:00;;;;;;;2.10;1.23;;;;;;;6.64;100.00;102728.47;5002979;28;20056;-72
2023/02/04 06:37:25;;;;;;;1.67;1.38;;;;;;;6.63;100.00;102726.78;5005380;28;20041;-72
2023/02/04 06:39:53;;;;;;;2.17;1.40;;;;;;;6.64;100.00;102730.38;5005437;28;20048;-72
2023/02/04 06:42:18;;;;;;;3.30;1.50;;;;;;;6.66;100.00;102728.25;5006284;28;20032;-72
2023/02/04 06:44:44;;;;;;;1.75;1.40;;;;;;;6.63;100.00;102728.66;5051892;28;20044;-72
2023/02/04 06:47:09;;;;;;;3.55;1.60;;;;;;;6.58;100.00;102725.72;5053642;28;20028;-72
2023/02/04 06:49:35;;;;;;;4.70;3.03;;;;;;;6.59;100.00;102732.94;5002408;28;20477;-72
2023/02/04 06:52:00;;;;;;;3.05;2.00;;;;;;;6.59;100.00;102728.25;5035601;28;20028;-72
2023/02/04 06:54:26;;;;;;;3.97;2.40;;;;;;;6.62;100.00;102724.22;4994007;28;20026;-72
2023/02/04 06:56:51;;;;;;;4.47;2.03;;;;;;;6.59;100.00;102724.66;5003422;28;20098;-71
2023/02/04 06:59:17;;;;;;;3.42;2.60;;;;;;;6.58;100.00;102726.56;5027845;28;20027;-72
2023/02/04 07:01:42;;;;;;;5.07;2.83;;;;;;;6.58;100.00;102728.47;5044692;28;20030;-72
2023/02/04 07:04:08;;;;;;;5.10;3.10;;;;;;;6.58;100.00;102731.25;5006860;28;20048;-72
2023/02/04 07:06:33;;;;;;;6.60;3.50;;;;;;;6.57;100.00;102732.28;5021719;28;20485;-72
2023/02/04 07:08:59;;;;;;;5.60;3.10;;;;;;;6.55;100.00;102735.28;5011105;28;20030;-72
2023/02/04 07:11:24;;;;;;;3.63;2.80;;;;;;;6.56;100.00;102741.66;5050847;28;20478;-72
2023/02/04 07:13:50;;;;;;;5.22;3.42;;;;;;;6.56;100.00;102738.88;5009887;28;20051;-72
2023/02/04 07:16:15;;;;;;;4.35;3.33;;;;;;;6.51;100.00;102741.44;5015680;28;20594;-72
2023/02/04 07:18:40;;;;;;;11.57;6.78;;;;;;;6.47;100.00;102738.25;5010233;28;20026;-72
2023/02/04 07:21:06;;;;;;;10.73;5.00;;;;;;;6.46;100.00;102737.41;4988093;28;20021;-72
2023/02/04 07:23:31;;;;;;;8.15;5.43;;;;;;;6.47;100.00;102732.72;5009254;28;20017;-72
2023/02/04 07:25:58;;;;;;;5.72;4.45;;;;;;;6.45;100.00;102732.94;5004199;28;20033;-72
2023/02/04 07:28:24;;;;;;;7.82;4.70;;;;;;;6.48;100.00;102729.75;5009879;28;20040;-72
2023/02/04 07:30:49;;;;;;;6.95;4.53;;;;;;;6.49;100.00;102734.22;5015813;28;20030;-72
2023/02/04 07:33:15;;;;;;;5.95;4.40;;;;;;;6.48;100.00;102735.25;5001761;28;20501;-72
2023/02/04 07:35:40;;;;;;;7.90;4.85;;;;;;;6.46;100.00;102725.50;4999714;28;20425;-72
2023/02/04 07:38:06;;;;;;;7.05;4.25;;;;;;;6.45;100.00;102729.31;4986927;28;20040;-73
2023/02/04 07:40:31;;;;;;;9.32;5.72;;;;;;;6.42;100.00;102727.84;5021328;28;20071;-72
2023/02/04 07:42:57;;;;;;;6.78;5.47;;;;;;;6.45;100.00;102732.09;5009717;28;20533;-72
2023/02/04 07:45:22;;;;;;;7.28;5.35;;;;;;;6.43;100.00;102731.44;5036302;28;20029;-72
2023/02/04 07:47:48;;;;;;;8.55;5.15;;;;;;;6.46;100.00;102733.78;5027054;28;20033;-72
2023/02/04 07:50:13;;;;;;;8.55;6.15;;;;;;;6.47;100.00;102732.72;5036985;28;20048;-72
2023/02/04 07:52:39;;;;;;;8.98;5.60;;;;;;;6.46;100.00;102737.41;5017407;28;20166;-72
2023/02/04 07:55:05;;;;;;;6.30;5.10;;;;;;;6.46;100.00;102726.38;5001333;28;20029;-72
2023/02/04 07:57:31;;;;;;;7.20;5.07;;;;;;;6.47;100.00;102741.84;5001438;28;20025;-72
2023/02/04 07:59:56;;;;;;;9.98;5.38;;;;;;;6.47;100.00;102733.56;5000581;28;20473;-72
2023/02/04 08:02:22;;;;;;;6.78;4.70;;;;;;;6.48;100.00;102731.66;5054198;28;20032;-72
2023/02/04 08:04:47;;;;;;;9.23;5.30;;;;;;;6.48;100.00;102734.41;5017389;28;20038;-72
2023/02/04 08:07:13;;;;;;;5.30;4.47;;;;;;;6.49;100.00;102730.59;5043440;28;20040;-72
2023/02/04 08:09:38;;;;;;;5.85;4.55;;;;;;;6.49;100.00;102734.22;5003532;28;20033;-72
2023/02/04 08:12:04;;;;;;;7.68;4.47;;;;;;;6.51;100.00;102745.03;5030073;28;20034;-72
2023/02/04 08:14:30;;;;;;;5.47;4.32;;;;;;;6.53;100.00;102750.34;5036899;28;20086;-72
2023/02/04 08:16:55;;;;;;;8.43;5.10;;;;;;;6.53;100.00;102744.84;5054013;28;20033;-72
2023/02/04 08:19:21;;;;;;;6.85;4.60;;;;;;;6.53;100.00;102751.19;5017409;28;20033;-71
2023/02/04 08:21:46;;;;;;;6.50;4.22;;;;;;;6.53;100.00;102750.34;5048994;28;20028;-72
2023/02/04 08:24:13;;;;;;;7.22;4.28;;;;;;;6.54;100.00;102746.53;5007207;28;20037;-72
2023/02/04 08:26:41;;;;;;;7.15;4.80;;;;;;;6.57;100.00;102754.38;5016805;28;20037;-72
2023/02/04 08:29:07;;;;;;;6.53;4.35;;;;;;;6.57;100.00;102754.38;5017599;28;20108;-71
2023/02/04 08:31:33;;;;;;;6.55;4.85;;;;;;;6.59;100.00;102758.63;5037354;28;20059;-72
2023/02/04 08:33:58;;;;;;;5.75;4.18;;;;;;;6.62;100.00;102758.19;5004428;28;20474;-71
2023/02/04 08:36:24;;;;;;;8.98;4.70;;;;;;;6.64;100.00;102760.75;5037290;28;20037;-71
2023/02/04 08:38:49;;;;;;;8.68;5.10;;;;;;;6.64;100.00;102766.28;4998983;28;20398;-71
2023/02/04 08:41:15;;;;;;;8.02;4.70;;;;;;;6.67;100.00;102763.09;5033990;28;20371;-71
2023/02/04 08:43:40;;;;;;;10.88;5.43;;;;;;;6.69;100.00;102769.25;5029827;28;20022;-71
2023/02/04 08:46:06;;;;;;;12.10;6.53;;;;;;;6.72;100.00;102774.34;5003678;28;20029;-71
2023/02/04 08:48:32;;;;;;;10.63;6.88;;;;;;;6.74;100.00;102769.44;5026080;28;20036;-71
2023/02/04 08:50:57;;;;;;;11.65;7.20;;;;;;;6.76;100.00;102775.59;5037142;28;20370;-71
2023/02/04 08:53:22;;;;;;;7.70;5.75;;;;;;;6.79;100.00;102777.09;5031294;28;20531;-70
2023/02/04 08:55:48;;;;;;;11.07;7.25;;;;;;;6.81;100.00;102783.25;4992920;28;20029;-71
2023/02/04 08:58:13;;;;;;;8.98;6.20;;;;;;;6.83;100.00;102778.38;5004889;28;20114;-71
2023/02/04 09:00:39;;;;;;;11.52;6.88;;;;;;;6.84;100.00;102789.19;5000542;28;20040;-71
2023/02/04 09:03:04;;;;;;;14.30;6.65;;;;;;;6.85;100.00;102788.16;5017208;28;20032;-71
2023/02/04 09:05:30;;;;;;;13.43;7.78;;;;;;;6.86;100.00;102800.91;4996994;28;20025;-71
2023/02/04 09:07:55;;;;;;;12.80;7.95;;;;;;;6.86;100.00;102803.66;5040414;28;20036;-70
2023/02/04 09:10:21;;;;;;;8.55;6.32;;;;;;;6.90;100.00;102793.88;5015477;28;20048;-71
2023/02/04 09:12:46;;;;;;;10.55;6.18;;;;;;;6.92;100.00;102788.97;5022731;28;20661;-71
2023/02/04 09:15:12;;;;;;;6.75;4.55;;;;;;;6.94;100.00;102788.78;5020775;28;20030;-71
2023/02/04 09:17:38;;;;;;;8.48;4.90;;;;;;;6.98;100.00;102797.47;5007129;28;20025;-71
2023/02/04 09:20:03;;;;;;;7.10;5.13;;;;;;;7.01;100.00;102794.28;5023390;28;20052;-71
2023/02/04 09:22:29;;;;;;;10.88;5.47;;;;;;;7.05;100.00;102801.06;5039860;28;20033;-71
2023/02/04 09:24:55;;;;;;;9.35;5.28;;;;;;;7.08;100.00;102807.03;5019715;28;20037;-74
2023/02/04 09:27:20;;;;;;;9.90;5.47;;;;;;;7.12;100.00;102804.69;5032212;28;20037;-71
2023/02/04 09:29:46;;;;;;;7.28;5.25;;;;;;;7.13;100.00;102809.13;5035715;28;20037;-71
2023/02/04 09:32:11;;;;;;;8.50;5.53;;;;;;;7.18;100.00;102805.75;5012629;28;20037;-71
2023/02/04 09:34:37;;;;;;;11.75;5.72;;;;;;;7.23;100.00;102808.72;5040302;28;20029;-70
2023/02/04 09:37:02;;;;;;;8.85;5.55;;;;;;;7.27;100.00;102812.72;5028319;28;20083;-71
2023/02/04 09:39:28;;;;;;;8.90;5.35;;;;;;;7.31;100.00;102812.09;4997091;28;20561;-71
2023/02/04 09:41:53;;;;;;;8.82;5.93;;;;;;;7.38;100.00;102812.06;5014976;28;20091;-71
2023/02/04 09:44:19;;;;;;;8.50;5.50;;;;;;;7.43;100.00;102819.72;4995618;28;20024;-71
2023/02/04 09:46:52;;;;;;;11.90;6.43;;;;;;;7.52;100.00;102821.16;5005180;28;20030;-71
2023/02/04 09:49:18;;;;;;;11.35;5.50;;;;;;;7.58;100.00;102821.16;5025716;28;20029;-71
2023/02/04 09:51:44;;;;;;;7.70;5.13;;;;;;;7.67;100.00;102824.53;5003940;28;20029;-72
2023/02/04 09:54:14;;;;;;;9.00;5.05;;;;;;;7.70;100.00;102824.09;5042536;28;20029;-71
2023/02/04 09:56:39;;;;;;;8.35;4.90;;;;;;;7.76;100.00;102828.75;4987543;28;20029;-74
2023/02/04 09:59:20;;;;;;;13.73;8.60;;;;;;;7.84;100.00;102833.19;5003779;28;20471;-71
2023/02/04 10:01:54;;;;;;;11.98;6.22;;;;;;;7.91;100.00;102825.72;5014118;28;20402;-71
2023/02/04 10:04:20;;;;;;;10.07;5.22;;;;;;;7.96;100.00;102836.13;5003940;28;20034;-71
2023/02/04 10:06:45;;;;;;;8.70;4.75;;;;;;;8.01;100.00;102839.91;5009205;28;20041;-71
2023/02/04 10:09:11;;;;;;;8.23;4.32;;;;;;;8.03;100.00;102832.25;5055812;28;20492;-71
2023/02/04 10:11:37;;;;;;;8.10;3.25;;;;;;;8.05;100.00;102840.31;5007251;28;20025;-70
2023/02/04 10:14:02;;;;;;;7.10;3.55;;;;;;;8.11;100.00;102844.13;5003409;28;20028;-70
2023/02/04 10:16:30;;;;;;;5.82;2.97;;;;;;;8.12;100.00;102851.38;5021575;28;20033;-70
2023/02/04 10:19:00;;;;;;;8.65;3.40;;;;;;;8.16;100.00;102850.72;5004483;28;20082;-73
2023/02/04 10:21:31;;;;;;;5.65;3.47;;;;;;;8.17;100.00;102857.09;5019944;28;20037;-73
2023/02/04 10:23:57;;;;;;;6.60;3.38;;;;;;;8.18;100.00;102856.88;5019589;28;20064;-70
2023/02/04 10:26:26;;;;;;;4.93;3.28;;;;;;;8.20;100.00;102865.81;5018560;28;20049;-72
2023/02/04 10:29:03;;;;;;;6.30;3.08;;;;;;;8.21;100.00;102867.50;5034092;28;20040;-70
2023/02/04 10:31:43;;;;;;;9.60;4.03;;;;;;;8.24;100.00;102869.81;5031312;28;20032;-74
2023/02/04 10:34:39;;;;;;;7.13;3.65;;;;;;;8.25;100.00;102867.94;5044063;28;20025;-70
2023/02/04 10:37:20;;;;;;;6.32;4.20;;;;;;;8.27;100.00;102868.53;5055534;28;20037;-70
2023/02/04 10:39:47;;;;;;;7.05;3.97;;;;;;;8.26;100.00;102873.22;5044111;28;20057;-70
2023/02/04 10:42:27;;;;;;;12.27;6.53;;;;;;;8.29;100.00;102874.72;5003965;28;20486;-71
2023/02/04 10:44:52;;;;;;;10.40;7.15;;;;;;;8.29;100.00;102877.47;5016123;28;20022;-70
2023/02/04 10:47:22;;;;;;;10.40;6.10;;;;;;;8.29;100.00;102883.84;5007496;28;20086;-70
2023/02/04 10:50:06;;;;;;;8.63;5.40;;;;;;;8.28;100.00;102887.72;5024232;28;20068;-70
2023/02/04 10:52:42;;;;;;;11.15;6.97;;;;;;;8.29;100.00;102886.63;5030956;28;20030;-70
2023/02/04 10:55:12;;;;;;;11.05;7.55;;;;;;;8.32;100.00;102885.34;5031741;28;20425;-70
2023/02/04 10:57:38;;;;;;;11.40;7.70;;;;;;;8.32;100.00;102882.56;5014226;28;20033;-70
2023/02/04 11:00:04;;;;;;;12.23;7.15;;;;;;;8.35;100.00;102886.81;5031855;28;20033;-70
2023/02/04 11:02:41;;;;;;;11.82;7.25;;;;;;;8.32;100.00;102890.03;5026039;28;20033;-70
2023/02/04 11:05:17;;;;;;;13.82;6.72;;;;;;;8.33;100.00;102887.06;5020024;28;20022;-70
2023/02/04 11:07:44;;;;;;;10.90;6.82;;;;;;;8.35;100.00;102884.03;5035097;28;20032;-70
2023/02/04 11:10:14;;;;;;;15.68;7.57;;;;;;;8.34;100.00;102887.91;5038771;28;20092;-71
2023/02/04 11:12:45;;;;;;;16.17;8.13;;;;;;;8.35;100.00;102876.59;5005706;28;20032;-71
2023/02/04 11:15:55;;;;;;;15.57;8.80;;;;;;;8.33;100.00;102877.88;5018671;28;20021;-71
2023/02/04 11:18:21;;;;;;;15.32;9.23;;;;;;;8.37;100.00;102873.59;5043235;28;20047;-71
2023/02/04 11:20:47;;;;;;;13.25;7.90;;;;;;;8.38;100.00;102875.28;5054531;28;20041;-71